Date,TemperatureHighF,TemperatureAvgF,TemperatureLowF,DewpointHighF,DewpointAvgF,DewpointLowF,HumidityHigh,HumidityAvg,HumidityLow,PressureMaxIn,PressureMinIn,WindSpeedMaxMPH,WindSpeedAvgMPH,GustSpeedMaxMPH,PrecipitationSumIn
2013-11-1,56,47,41,43,39,36,84,76,55,29.94,29.52,30,17,30,0.02
2013-11-2,59,44,32,38,33,27,85,68,38,30.10,29.94,18,7,18,0.00
2013-11-3,60,51,33,39,37,27,78,59,43,29.97,29.63,11,4,11,0.00
2013-11-4,55,44,27,41,34,20,83,68,42,30.11,29.69,29,7,29,0.00
2013-11-5,37,31,24,34,27,19,90,85,76,30.13,29.94,16,3,17,0.01
2013-11-6,40,33,25,32,28,21,90,83,71,30.18,30.06,10,2,11,0.00
2013-11-7,44,32,22,30,24,19,88,73,52,30.33,30.15,23,6,24,0.00
2013-11-8,57,43,26,41,33,19,81,68,53,30.16,29.62,30,7,31,0.00
2013-11-9,54,45,32,39,34,24,75,65,46,30.31,29.81,79,14,79,0.00
2013-11-10,55,36,22,35,26,16,85,68,38,30.33,30.03,15,3,15,0.00
2013-11-11,39,25,13,34,15,4,87,64,44,30.73,30.04,24,8,25,0.00
2013-11-12,13,12,11,4,3,2,70,69,68,30.75,30.73,9,7,9,0.00
2013-11-13,60,36,23,33,22,10,73,58,35,30.39,29.88,23,4,23,0.00
2013-11-14,59,36,28,43,29,22,87,77,50,29.90,29.81,13,2,13,0.00
2013-11-15,60,38,24,42,30,20,92,74,46,29.82,29.51,11,2,17,0.00
2013-11-16,57,49,35,49,41,26,93,74,48,29.51,29.22,17,9,17,0.00
2013-11-17,50,43,35,42,35,23,90,75,50,29.97,29.33,26,10,27,0.01
2013-11-18,50,35,23,32,26,18,86,72,46,30.17,29.97,15,4,17,0.00
2013-11-19,63,46,28,35,29,22,83,55,32,30.08,29.73,19,5,22,0.00
2013-11-20,58,47,34,38,32,28,80,58,44,29.95,29.70,16,4,18,0.00
2013-11-21,34,26,18,29,17,11,81,67,52,30.50,29.95,32,19,36,0.00
2013-11-22,34,21,6,14,6,-4,68,53,27,30.62,30.48,21,7,21,0.00
2013-11-23,21,13,6,12,0,-6,70,55,33,30.83,30.60,16,4,16,0.00
2013-11-24,40,24,6,20,10,-4,67,55,42,30.62,30.03,30,8,30,0.00
2013-11-25,45,34,23,29,23,16,76,64,49,30.14,29.98,27,12,27,0.00
2013-11-26,29,24,16,22,9,-1,77,55,28,30.37,30.14,33,16,35,0.00
2013-11-27,35,21,2,20,6,-7,75,55,34,30.37,29.89,24,4,25,0.00
2013-11-28,35,24,9,19,12,0,74,59,42,30.40,29.97,27,10,27,0.00
2013-11-29,43,25,7,25,14,-2,76,64,44,30.40,30.02,10,2,14,0.00
2013-11-30,51,33,18,32,22,11,83,66,47,30.12,29.99,12,4,13,0.00